createdAt,value
2022-10-05T00:00:14.497Z,11.15
2022-10-05T00:05:19.356Z,11.10
2022-10-05T00:10:17.867Z,11.07
2022-10-05T00:15:15.109Z,11.05
2022-10-05T00:20:19.406Z,11.18
2022-10-05T00:25:17.891Z,11.20
2022-10-05T00:30:18.543Z,11.10
2022-10-05T00:35:15.401Z,11.73
2022-10-05T00:40:21.015Z,11.57
2022-10-05T00:45:32.631Z,11.63
2022-10-05T00:50:31.716Z,11.90
2022-10-05T00:55:34.893Z,12.68
2022-10-05T01:00:33.121Z,12.20
2022-10-05T01:05:32.071Z,12.07
2022-10-05T01:10:33.935Z,14.20
2022-10-05T01:15:39.385Z,13.80
2022-10-05T01:20:39.479Z,13.73
2022-10-05T01:25:35.752Z,13.63
2022-10-05T01:30:37.516Z,13.70
2022-10-05T01:35:34.239Z,14.13
2022-10-05T01:40:54.988Z,14.05
2022-10-05T01:45:57.276Z,14.40
2022-10-05T01:51:05.440Z,14.13
2022-10-05T01:56:04.230Z,14.10
2022-10-05T02:01:00.757Z,14.13
2022-10-05T02:06:04.665Z,14.52
2022-10-05T02:11:03.492Z,15.57
2022-10-05T02:16:28.957Z,15.23
2022-10-05T02:21:25.427Z,15.27
2022-10-05T02:26:22.062Z,15.65
2022-10-05T02:31:23.866Z,14.60
2022-10-05T02:36:23.840Z,14.87
2022-10-05T02:41:22.875Z,15.60
2022-10-05T02:46:24.343Z,14.63
2022-10-05T02:51:23.486Z,14.70
2022-10-05T02:56:35.091Z,15.82
2022-10-05T03:01:41.565Z,15.43
2022-10-05T03:06:52.813Z,15.73
2022-10-05T03:12:10.194Z,16.40
2022-10-05T03:17:13.436Z,18.00
2022-10-05T03:22:29.098Z,16.20
2022-10-05T03:27:37.281Z,16.25
2022-10-05T03:32:47.895Z,17.13
2022-10-05T03:38:06.220Z,17.77
2022-10-05T03:43:05.630Z,16.60
2022-10-05T03:48:07.336Z,16.88
2022-10-05T03:53:14.957Z,17.00
2022-10-05T03:58:18.829Z,18.02
2022-10-05T04:03:53.817Z,17.90
2022-10-05T04:09:04.275Z,18.13
2022-10-05T04:14:27.432Z,18.33
2022-10-05T04:19:35.182Z,18.92
2022-10-05T04:24:36.590Z,17.92
2022-10-05T04:30:00.286Z,18.73
2022-10-05T04:35:03.614Z,18.45
2022-10-05T04:40:00.298Z,18.30
2022-10-05T04:45:19.842Z,18.63
2022-10-05T04:50:27.093Z,19.55
2022-10-05T04:55:46.416Z,20.15
2022-10-05T05:01:05.057Z,18.95
2022-10-05T05:06:24.396Z,21.05
2022-10-05T05:11:45.555Z,20.90
2022-10-05T05:16:43.173Z,20.98
2022-10-05T05:21:45.129Z,21.58
2022-10-05T05:27:10.079Z,21.27
2022-10-05T05:32:21.069Z,21.73
2022-10-05T05:38:02.021Z,22.17
2022-10-05T05:43:14.456Z,22.58
2022-10-05T05:48:26.512Z,23.00
2022-10-05T05:53:30.584Z,24.42
2022-10-05T06:04:16.030Z,24.20
2022-10-05T06:09:31.450Z,24.88
2022-10-05T06:14:35.074Z,26.45
2022-10-05T06:19:41.159Z,25.80
2022-10-05T06:24:45.766Z,25.75
2022-10-05T06:29:53.713Z,26.38
2022-10-05T06:35:19.376Z,24.95
2022-10-05T06:40:16.006Z,26.40
2022-10-05T06:45:12.498Z,25.90
2022-10-05T06:50:38.209Z,25.67
2022-10-05T06:56:00.731Z,26.30
2022-10-05T07:01:19.087Z,23.63
2022-10-05T07:06:23.521Z,25.08
2022-10-05T07:11:38.974Z,24.92
2022-10-05T07:16:51.550Z,26.33
2022-10-05T07:21:51.529Z,24.48
2022-10-05T07:26:55.269Z,25.45
2022-10-05T07:32:04.743Z,25.48
2022-10-05T07:37:27.910Z,23.27
2022-10-05T07:42:50.544Z,25.40
2022-10-05T07:47:54.079Z,23.30
2022-10-05T07:52:58.471Z,23.52
2022-10-05T07:58:03.828Z,23.80
2022-10-05T08:03:10.223Z,23.45
2022-10-05T08:08:19.795Z,22.60
2022-10-05T08:13:27.285Z,22.92
2022-10-05T08:18:29.258Z,23.70
2022-10-05T08:23:38.632Z,22.13
2022-10-05T08:28:43.482Z,21.85
2022-10-05T08:33:52.224Z,21.27
2022-10-05T08:38:52.386Z,20.25
2022-10-05T08:43:55.283Z,21.58
2022-10-05T08:49:00.827Z,19.98
2022-10-05T08:54:18.385Z,19.58
2022-10-05T08:59:34.002Z,19.25
2022-10-05T09:04:57.671Z,19.33
2022-10-05T09:10:07.859Z,19.67
2022-10-05T09:15:25.940Z,19.38
2022-10-05T09:20:50.427Z,18.77
2022-10-05T09:26:10.452Z,17.92
2022-10-05T09:31:10.921Z,17.60
2022-10-05T09:36:46.162Z,17.83
2022-10-05T09:41:50.671Z,18.25
2022-10-05T09:46:53.346Z,17.25
2022-10-05T09:52:05.942Z,15.73
2022-10-05T09:57:20.399Z,16.55
2022-10-05T10:02:27.785Z,16.30
2022-10-05T10:07:41.870Z,15.23
2022-10-05T10:12:49.521Z,15.95
2022-10-05T10:17:47.924Z,15.93
2022-10-05T10:23:05.597Z,16.45
2022-10-05T10:28:04.920Z,14.75
2022-10-05T10:33:03.914Z,15.50
2022-10-05T10:38:26.884Z,16.35
2022-10-05T10:43:24.497Z,14.43
2022-10-05T10:48:43.784Z,15.98
2022-10-05T10:53:58.259Z,15.57
2022-10-05T10:59:13.245Z,15.43
2022-10-05T11:04:09.882Z,14.63
2022-10-05T11:09:37.001Z,14.93
2022-10-05T11:14:33.557Z,15.63
2022-10-05T11:20:05.217Z,15.23
2022-10-05T11:25:07.717Z,14.65
2022-10-05T11:30:26.007Z,14.82
2022-10-05T11:35:28.447Z,14.73
2022-10-05T11:40:47.739Z,15.02
2022-10-05T11:46:06.363Z,13.50
2022-10-05T11:51:25.222Z,13.98
2022-10-05T11:56:36.252Z,13.68
2022-10-05T12:01:43.622Z,13.88
2022-10-05T12:07:00.920Z,13.38
2022-10-05T12:12:34.524Z,12.80
2022-10-05T12:18:00.670Z,12.55
2022-10-05T12:23:44.132Z,12.25
2022-10-05T12:29:02.492Z,11.85
2022-10-05T12:34:08.494Z,11.18
2022-10-05T12:39:18.847Z,12.10
2022-10-05T12:44:19.182Z,11.02
2022-10-05T12:49:20.964Z,11.00
2022-10-05T12:54:25.434Z,10.50
2022-10-05T12:59:23.043Z,10.77
2022-10-05T13:04:33.570Z,9.93
2022-10-05T13:09:59.617Z,10.48
2022-10-05T13:15:06.086Z,11.07
2022-10-05T13:20:07.946Z,10.77
2022-10-05T13:30:32.463Z,10.73
2022-10-05T13:35:32.130Z,11.20
2022-10-05T13:40:35.795Z,10.23
2022-10-05T13:45:49.279Z,12.63
2022-10-05T13:51:07.081Z,11.85
2022-10-05T13:56:11.464Z,12.30
2022-10-05T14:01:41.806Z,13.98
2022-10-05T14:06:40.779Z,13.23
2022-10-05T14:11:51.671Z,12.32
2022-10-05T14:16:53.511Z,13.13
2022-10-05T14:22:03.333Z,12.30
2022-10-05T14:27:09.831Z,11.52
2022-10-05T14:32:13.920Z,11.30
2022-10-05T14:37:26.050Z,11.57
2022-10-05T14:42:23.630Z,10.83
2022-10-05T14:47:26.226Z,10.68
2022-10-05T14:57:37.898Z,12.07
2022-10-05T15:02:42.275Z,11.60
2022-10-05T15:07:48.428Z,11.70
2022-10-05T15:12:52.424Z,11.10
2022-10-05T15:17:54.602Z,10.80
2022-10-05T15:23:11.841Z,11.45
2022-10-05T15:28:32.444Z,12.13
2022-10-05T15:33:43.372Z,12.32
2022-10-05T15:39:00.321Z,10.77
2022-10-05T15:44:08.795Z,11.50
2022-10-05T15:49:14.870Z,11.82
2022-10-05T15:54:53.520Z,11.68
2022-10-05T16:00:06.832Z,12.60
2022-10-05T16:05:45.110Z,10.65
2022-10-05T16:10:44.152Z,10.70
2022-10-05T16:15:43.139Z,10.70
2022-10-05T16:20:57.419Z,10.95
2022-10-05T16:25:57.238Z,11.20
2022-10-05T16:30:54.348Z,11.57
2022-10-05T16:35:56.917Z,11.73
2022-10-05T16:46:01.986Z,12.45
2022-10-05T16:51:20.636Z,13.25
2022-10-05T16:56:26.406Z,13.73
2022-10-05T17:01:44.192Z,13.80
2022-10-05T17:07:06.362Z,13.65
2022-10-05T17:12:24.160Z,13.55
2022-10-05T17:17:46.018Z,13.20
2022-10-05T17:22:51.277Z,13.85
2022-10-05T17:27:55.375Z,13.40
2022-10-05T17:32:58.515Z,14.18
2022-10-05T17:38:40.011Z,14.07
2022-10-05T17:43:42.648Z,12.93
2022-10-05T17:48:48.928Z,13.60
2022-10-05T17:54:03.757Z,14.07
2022-10-05T17:59:03.410Z,14.27
2022-10-05T18:04:13.249Z,13.85
2022-10-05T18:09:34.165Z,13.73
2022-10-05T18:14:54.325Z,13.55
2022-10-05T18:20:09.831Z,13.88
2022-10-05T18:25:13.545Z,13.93
2022-10-05T18:30:28.882Z,13.70
2022-10-05T18:35:29.174Z,14.02
2022-10-05T18:40:46.805Z,13.43
2022-10-05T18:46:08.685Z,13.82
2022-10-05T18:51:18.467Z,13.07
2022-10-05T18:56:14.683Z,12.77
2022-10-05T19:01:28.983Z,12.35
2022-10-05T19:06:27.370Z,12.55
2022-10-05T19:11:43.610Z,12.93
2022-10-05T19:16:53.828Z,12.45
2022-10-05T19:22:10.404Z,12.77
2022-10-05T19:27:10.507Z,12.40
2022-10-05T19:32:25.959Z,11.80
2022-10-05T19:37:34.342Z,11.70
2022-10-05T19:42:49.131Z,11.93
2022-10-05T19:48:05.837Z,12.48
2022-10-05T19:53:03.945Z,12.23
2022-10-05T19:58:02.959Z,11.70
2022-10-05T20:03:08.280Z,11.77
2022-10-05T20:08:05.301Z,11.30
2022-10-05T20:13:02.515Z,10.80
2022-10-05T20:18:37.117Z,10.38
2022-10-05T20:23:33.336Z,9.65
2022-10-05T20:28:30.705Z,9.63
2022-10-05T20:33:28.240Z,9.45
2022-10-05T20:38:24.663Z,9.85
2022-10-05T20:43:21.151Z,9.95
2022-10-05T20:48:17.586Z,10.63
2022-10-05T20:53:14.053Z,10.73
2022-10-05T20:58:11.019Z,10.65
2022-10-05T21:03:08.549Z,10.30
2022-10-05T21:08:04.731Z,10.98
2022-10-05T21:13:02.681Z,10.93
2022-10-05T21:17:58.970Z,11.23
2022-10-05T21:22:55.203Z,11.40
2022-10-05T21:27:52.300Z,11.77
2022-10-05T21:32:48.630Z,11.27
2022-10-05T21:37:44.968Z,11.20
2022-10-05T21:42:41.223Z,11.73
2022-10-05T21:47:37.674Z,11.82
2022-10-05T21:52:34.943Z,10.55
2022-10-05T21:57:31.451Z,10.75
2022-10-05T22:02:27.717Z,11.15
2022-10-05T22:07:23.907Z,10.23
2022-10-05T22:12:20.564Z,10.13
2022-10-05T22:17:19.962Z,9.50
2022-10-05T22:22:16.400Z,10.30
2022-10-05T22:27:13.190Z,10.10
2022-10-05T22:32:09.465Z,9.95
2022-10-05T22:37:06.253Z,9.57
2022-10-05T22:42:02.489Z,9.90
2022-10-05T22:46:58.708Z,10.32
2022-10-05T22:51:54.989Z,9.75
2022-10-05T22:56:51.186Z,10.52
2022-10-05T23:01:47.397Z,15.82
2022-10-05T23:06:43.829Z,19.40
2022-10-05T23:11:40.597Z,23.40
2022-10-05T23:16:36.850Z,28.00
2022-10-05T23:21:33.145Z,19.92
2022-10-05T23:26:30.284Z,18.13
2022-10-05T23:31:28.859Z,16.05
2022-10-05T23:36:26.759Z,17.08
2022-10-05T23:41:25.299Z,14.75
2022-10-05T23:46:21.867Z,14.85
2022-10-05T23:51:18.583Z,14.60
2022-10-05T23:56:14.837Z,14.18
